RWZ4311 URSS-LLBG
Flight info
| Callsign | RWZ4311 |
|---|---|
| Flight time | 2h 11m |
| Altitude | 34000 |
| Route | LAMET1D LAMET G487 ODIRA/N0454F400 UW96 SIN UT61 BAG UP29 AYT UA16 TOMBI DCT IDAKU L35 PIKOG L609 ZUKKO |
| Aircraft | SU95/M-SDE3GILORVW/S |
Departure
| Time | 2026-05-07 18:03 |
|---|---|
| Airport | Sochi International Airport (URSS) |
Arrival
| Time | 2026-05-07 20:14 |
|---|---|
| Airport | Ben Gurion International Airport (LLBG) |
| Time | Latitude | Longitude | Altitude | Speed | Heading |
|---|---|---|---|---|---|
| 2026-05-07 17:38 | 43.44569 | 39.93873 | 63 ft | 0 kts | 4° |
| 2026-05-07 17:52 | 43.44558 | 39.93872 | 58 ft | 4 kts | 4° |
| 2026-05-07 17:52 | 43.44531 | 39.93869 | 60 ft | 4 kts | 8° |
| 2026-05-07 17:52 | 43.44507 | 39.93855 | 63 ft | 4 kts | 46° |
| 2026-05-07 17:53 | 43.44499 | 39.93838 | 57 ft | 0 kts | 64° |
| 2026-05-07 17:55 | 43.44501 | 39.93842 | 64 ft | 4 kts | 64° |
| 2026-05-07 17:55 | 43.44537 | 39.93952 | 66 ft | 21 kts | 66° |
| 2026-05-07 17:56 | 43.44617 | 39.94185 | 70 ft | 29 kts | 65° |
| 2026-05-07 17:56 | 43.44644 | 39.94260 | 65 ft | 16 kts | 64° |
| 2026-05-07 17:56 | 43.44681 | 39.94371 | 72 ft | 1 kts | 65° |
| 2026-05-07 17:56 | 43.44692 | 39.94402 | 72 ft | 0 kts | 65° |
| 2026-05-07 17:57 | 43.44693 | 39.94407 | 72 ft | 0 kts | 65° |
| 2026-05-07 17:57 | 43.44694 | 39.94408 | 69 ft | 0 kts | 65° |
| 2026-05-07 17:59 | 43.44694 | 39.94409 | 69 ft | 1 kts | 65° |
| 2026-05-07 17:59 | 43.44712 | 39.94461 | 65 ft | 14 kts | 65° |
| 2026-05-07 18:00 | 43.44767 | 39.94624 | 67 ft | 21 kts | 64° |
| 2026-05-07 18:00 | 43.44834 | 39.94819 | 72 ft | 23 kts | 65° |
| 2026-05-07 18:00 | 43.44876 | 39.94951 | 75 ft | 8 kts | 89° |
| 2026-05-07 18:00 | 43.44864 | 39.94979 | 70 ft | 1 kts | 148° |
| 2026-05-07 18:01 | 43.44850 | 39.94991 | 69 ft | 0 kts | 152° |
| 2026-05-07 18:01 | 43.44855 | 39.94987 | 74 ft | 0 kts | 152° |
| 2026-05-07 18:01 | 43.44853 | 39.94988 | 68 ft | 1 kts | 155° |
| 2026-05-07 18:02 | 43.44763 | 39.94969 | 71 ft | 16 kts | 243° |
| 2026-05-07 18:02 | 43.44733 | 39.94882 | 72 ft | 40 kts | 244° |
| 2026-05-07 18:02 | 43.44463 | 39.94090 | 66 ft | 138 kts | 245° |
| 2026-05-07 18:03 | 43.43968 | 39.92639 | 458 ft | 182 kts | 245° |
| 2026-05-07 18:03 | 43.43406 | 39.90978 | 1397 ft | 201 kts | 245° |
| 2026-05-07 18:03 | 43.42916 | 39.89151 | 2494 ft | 212 kts | 258° |
| 2026-05-07 18:03 | 43.42717 | 39.87128 | 3828 ft | 215 kts | 264° |
| 2026-05-07 18:04 | 43.42549 | 39.85051 | 5054 ft | 220 kts | 263° |
| 2026-05-07 18:04 | 43.42308 | 39.82918 | 6111 ft | 228 kts | 260° |
| 2026-05-07 18:04 | 43.41988 | 39.80751 | 7160 ft | 234 kts | 258° |
| 2026-05-07 18:04 | 43.41618 | 39.78555 | 8257 ft | 236 kts | 257° |
| 2026-05-07 18:05 | 43.41230 | 39.76367 | 9274 ft | 242 kts | 256° |
| 2026-05-07 18:05 | 43.40820 | 39.74093 | 9794 ft | 246 kts | 256° |
| 2026-05-07 18:05 | 43.40408 | 39.71800 | 9994 ft | 248 kts | 256° |
| 2026-05-07 18:05 | 43.39980 | 39.69466 | 10424 ft | 254 kts | 256° |
| 2026-05-07 18:06 | 43.39517 | 39.67127 | 11449 ft | 255 kts | 255° |
| 2026-05-07 18:06 | 43.39027 | 39.64700 | 12157 ft | 278 kts | 255° |
| 2026-05-07 18:06 | 43.38488 | 39.62016 | 12808 ft | 303 kts | 255° |
| 2026-05-07 18:06 | 43.37905 | 39.59105 | 13419 ft | 329 kts | 256° |
| 2026-05-07 18:07 | 43.37282 | 39.55979 | 14130 ft | 347 kts | 256° |
| 2026-05-07 18:07 | 43.36634 | 39.52742 | 15146 ft | 352 kts | 256° |
| 2026-05-07 18:07 | 43.35978 | 39.49463 | 16167 ft | 359 kts | 256° |
| 2026-05-07 18:07 | 43.35310 | 39.46127 | 17132 ft | 366 kts | 255° |
| 2026-05-07 18:08 | 43.34625 | 39.42711 | 18119 ft | 373 kts | 255° |
| 2026-05-07 18:08 | 43.33937 | 39.39290 | 19032 ft | 378 kts | 255° |
| 2026-05-07 18:08 | 43.33231 | 39.35780 | 19914 ft | 384 kts | 255° |
| 2026-05-07 18:08 | 43.32513 | 39.32217 | 20804 ft | 388 kts | 256° |
| 2026-05-07 18:09 | 43.31786 | 39.28618 | 21715 ft | 393 kts | 255° |
| 2026-05-07 18:09 | 43.31045 | 39.24959 | 22550 ft | 399 kts | 255° |
| 2026-05-07 18:09 | 43.30302 | 39.21289 | 23389 ft | 405 kts | 255° |
| 2026-05-07 18:09 | 43.29541 | 39.17540 | 24153 ft | 411 kts | 255° |
| 2026-05-07 18:10 | 43.28763 | 39.13717 | 24845 ft | 417 kts | 255° |
| 2026-05-07 18:10 | 43.27975 | 39.09853 | 25521 ft | 422 kts | 255° |
| 2026-05-07 18:10 | 43.27185 | 39.05984 | 26188 ft | 428 kts | 255° |
| 2026-05-07 18:10 | 43.26372 | 39.02006 | 26846 ft | 433 kts | 255° |
| 2026-05-07 18:11 | 43.25550 | 38.97999 | 27487 ft | 439 kts | 255° |
| 2026-05-07 18:11 | 43.24998 | 38.95308 | 27901 ft | 442 kts | 255° |
| 2026-05-07 18:11 | 43.23886 | 38.89911 | 28793 ft | 446 kts | 255° |
| 2026-05-07 18:11 | 43.23038 | 38.85795 | 29360 ft | 452 kts | 255° |
| 2026-05-07 18:12 | 43.22173 | 38.81610 | 29936 ft | 457 kts | 255° |
| 2026-05-07 18:12 | 43.21301 | 38.77399 | 30478 ft | 461 kts | 255° |
| 2026-05-07 18:12 | 43.20421 | 38.73158 | 31022 ft | 464 kts | 255° |
| 2026-05-07 18:12 | 43.19531 | 38.68877 | 31558 ft | 468 kts | 255° |
| 2026-05-07 18:13 | 43.18646 | 38.64629 | 32064 ft | 471 kts | 255° |
| 2026-05-07 18:13 | 43.17742 | 38.60301 | 32560 ft | 474 kts | 255° |
| 2026-05-07 18:13 | 43.16825 | 38.55920 | 33086 ft | 476 kts | 255° |
| 2026-05-07 18:13 | 43.15910 | 38.51559 | 33766 ft | 475 kts | 255° |
| 2026-05-07 18:14 | 43.14996 | 38.47208 | 34164 ft | 473 kts | 255° |
| 2026-05-07 18:14 | 43.13186 | 38.38629 | 34205 ft | 471 kts | 255° |
| 2026-05-07 18:15 | 43.11359 | 38.29992 | 34212 ft | 471 kts | 255° |
| 2026-05-07 18:15 | 43.09530 | 38.21386 | 34207 ft | 471 kts | 255° |
| 2026-05-07 18:16 | 43.07408 | 38.12980 | 34210 ft | 470 kts | 250° |
| 2026-05-07 18:16 | 43.04987 | 38.04651 | 34206 ft | 471 kts | 250° |
| 2026-05-07 18:17 | 43.02624 | 37.96523 | 34210 ft | 471 kts | 250° |
| 2026-05-07 18:17 | 43.00306 | 37.88661 | 34209 ft | 472 kts | 249° |
| 2026-05-07 18:18 | 42.97850 | 37.80371 | 34224 ft | 471 kts | 249° |
| 2026-05-07 18:18 | 42.95446 | 37.72319 | 34220 ft | 471 kts | 249° |
| 2026-05-07 18:19 | 42.93011 | 37.64197 | 34216 ft | 470 kts | 249° |
| 2026-05-07 18:19 | 42.90578 | 37.56101 | 34213 ft | 470 kts | 249° |
| 2026-05-07 18:20 | 42.88204 | 37.48227 | 34218 ft | 468 kts | 249° |
| 2026-05-07 18:20 | 42.85795 | 37.40258 | 34209 ft | 467 kts | 249° |
| 2026-05-07 18:21 | 42.83368 | 37.32254 | 34205 ft | 467 kts | 249° |
| 2026-05-07 18:21 | 42.80941 | 37.24276 | 34187 ft | 466 kts | 249° |
| 2026-05-07 18:22 | 42.78479 | 37.16205 | 34203 ft | 465 kts | 249° |
| 2026-05-07 18:22 | 42.76090 | 37.08400 | 34193 ft | 464 kts | 249° |
| 2026-05-07 18:23 | 42.73597 | 37.00278 | 34188 ft | 464 kts | 249° |
| 2026-05-07 18:23 | 42.71098 | 36.92169 | 34185 ft | 464 kts | 248° |
| 2026-05-07 18:24 | 42.68288 | 36.84329 | 34200 ft | 463 kts | 246° |
| 2026-05-07 18:24 | 42.65440 | 36.76466 | 34196 ft | 463 kts | 246° |
| 2026-05-07 18:25 | 42.62584 | 36.68606 | 34193 ft | 463 kts | 245° |
| 2026-05-07 18:25 | 42.60204 | 36.62079 | 34190 ft | 463 kts | 245° |
| 2026-05-07 18:26 | 42.56871 | 36.52969 | 34188 ft | 463 kts | 245° |
| 2026-05-07 18:26 | 42.54482 | 36.46459 | 34187 ft | 463 kts | 245° |
| 2026-05-07 18:27 | 42.51602 | 36.38630 | 34184 ft | 463 kts | 245° |
| 2026-05-07 18:27 | 42.48721 | 36.30816 | 34187 ft | 463 kts | 245° |
| 2026-05-07 18:28 | 42.45853 | 36.23063 | 34193 ft | 462 kts | 246° |
| 2026-05-07 18:28 | 42.42963 | 36.15271 | 34194 ft | 462 kts | 246° |
| 2026-05-07 18:29 | 42.40084 | 36.07530 | 34193 ft | 462 kts | 245° |
| 2026-05-07 18:29 | 42.37182 | 35.99748 | 34179 ft | 461 kts | 246° |
| 2026-05-07 18:30 | 42.34302 | 35.92045 | 34194 ft | 461 kts | 246° |
| 2026-05-07 18:30 | 42.31404 | 35.84315 | 34190 ft | 460 kts | 246° |
| 2026-05-07 18:31 | 42.28499 | 35.76589 | 34187 ft | 460 kts | 245° |
| 2026-05-07 18:31 | 42.25613 | 35.68932 | 34185 ft | 459 kts | 246° |
| 2026-05-07 18:32 | 42.22711 | 35.61254 | 34181 ft | 458 kts | 246° |
| 2026-05-07 18:32 | 42.19824 | 35.53636 | 34175 ft | 458 kts | 245° |
| 2026-05-07 18:33 | 42.16914 | 35.45979 | 34172 ft | 458 kts | 245° |
| 2026-05-07 18:33 | 42.14004 | 35.38332 | 34160 ft | 457 kts | 246° |
| 2026-05-07 18:34 | 42.11127 | 35.30751 | 34170 ft | 456 kts | 246° |
| 2026-05-07 18:34 | 42.08233 | 35.23148 | 34168 ft | 456 kts | 246° |
| 2026-05-07 18:35 | 42.05351 | 35.15595 | 34166 ft | 455 kts | 246° |
| 2026-05-07 18:35 | 42.02114 | 35.08250 | 34165 ft | 460 kts | 237° |
| 2026-05-07 18:36 | 41.97642 | 35.01994 | 34160 ft | 466 kts | 225° |
| 2026-05-07 18:36 | 41.92815 | 34.96227 | 34155 ft | 466 kts | 225° |
| 2026-05-07 18:37 | 41.88005 | 34.90469 | 34154 ft | 465 kts | 225° |
| 2026-05-07 18:37 | 41.83188 | 34.84711 | 34151 ft | 466 kts | 225° |
| 2026-05-07 18:38 | 41.78331 | 34.78918 | 34152 ft | 465 kts | 225° |
| 2026-05-07 18:38 | 41.73556 | 34.73236 | 34138 ft | 465 kts | 225° |
| 2026-05-07 18:39 | 41.68708 | 34.67476 | 34144 ft | 466 kts | 225° |
| 2026-05-07 18:39 | 41.63854 | 34.61724 | 34133 ft | 466 kts | 225° |
| 2026-05-07 18:40 | 41.59024 | 34.56012 | 34145 ft | 466 kts | 225° |
| 2026-05-07 18:40 | 41.54155 | 34.50249 | 34145 ft | 465 kts | 226° |
| 2026-05-07 18:41 | 41.49350 | 34.44531 | 34140 ft | 465 kts | 226° |
| 2026-05-07 18:41 | 41.44511 | 34.38788 | 34139 ft | 464 kts | 226° |
| 2026-05-07 18:42 | 41.39681 | 34.33069 | 34137 ft | 464 kts | 226° |
| 2026-05-07 18:42 | 41.34840 | 34.27351 | 34144 ft | 464 kts | 226° |
| 2026-05-07 18:43 | 41.30021 | 34.21677 | 34142 ft | 465 kts | 226° |
| 2026-05-07 18:43 | 41.25161 | 34.15988 | 34146 ft | 465 kts | 226° |
| 2026-05-07 18:44 | 41.20309 | 34.10314 | 34142 ft | 464 kts | 226° |
| 2026-05-07 18:44 | 41.15479 | 34.04678 | 34142 ft | 464 kts | 226° |
| 2026-05-07 18:45 | 41.10617 | 33.99014 | 34143 ft | 464 kts | 226° |
| 2026-05-07 18:45 | 41.05780 | 33.93391 | 34141 ft | 464 kts | 226° |
| 2026-05-07 18:46 | 41.00914 | 33.87748 | 34140 ft | 464 kts | 226° |
| 2026-05-07 18:46 | 40.96084 | 33.82156 | 34138 ft | 463 kts | 226° |
| 2026-05-07 18:47 | 40.91228 | 33.76545 | 34134 ft | 462 kts | 226° |
| 2026-05-07 18:47 | 40.86375 | 33.70948 | 34131 ft | 462 kts | 226° |
| 2026-05-07 18:48 | 40.81508 | 33.65348 | 34143 ft | 464 kts | 226° |
| 2026-05-07 18:48 | 40.76679 | 33.59805 | 34148 ft | 465 kts | 226° |
| 2026-05-07 18:49 | 40.71803 | 33.54218 | 34148 ft | 464 kts | 226° |
| 2026-05-07 18:49 | 40.66912 | 33.48624 | 34163 ft | 465 kts | 226° |
| 2026-05-07 18:50 | 40.62047 | 33.43071 | 34149 ft | 465 kts | 226° |
| 2026-05-07 18:50 | 40.57149 | 33.37495 | 34158 ft | 465 kts | 227° |
| 2026-05-07 18:51 | 40.52305 | 33.31986 | 34164 ft | 465 kts | 227° |
| 2026-05-07 18:51 | 40.47393 | 33.26413 | 34159 ft | 465 kts | 227° |
| 2026-05-07 18:52 | 40.42492 | 33.20863 | 34167 ft | 464 kts | 227° |
| 2026-05-07 18:52 | 40.37626 | 33.15365 | 34175 ft | 464 kts | 227° |
| 2026-05-07 18:53 | 40.32735 | 33.09848 | 34165 ft | 464 kts | 226° |
| 2026-05-07 18:53 | 40.27846 | 33.04346 | 34189 ft | 462 kts | 226° |
| 2026-05-07 18:54 | 40.23000 | 32.98903 | 34185 ft | 461 kts | 226° |
| 2026-05-07 18:54 | 40.18123 | 32.93435 | 34169 ft | 461 kts | 226° |
| 2026-05-07 18:55 | 40.13248 | 32.87980 | 34180 ft | 460 kts | 226° |
| 2026-05-07 18:55 | 40.08383 | 32.82606 | 34172 ft | 462 kts | 223° |
| 2026-05-07 18:56 | 40.02839 | 32.78173 | 34141 ft | 470 kts | 212° |
| 2026-05-07 18:56 | 39.97047 | 32.74311 | 34147 ft | 470 kts | 212° |
| 2026-05-07 18:57 | 39.91205 | 32.70401 | 34151 ft | 470 kts | 212° |
| 2026-05-07 18:57 | 39.85403 | 32.66519 | 34158 ft | 471 kts | 212° |
| 2026-05-07 18:58 | 39.79564 | 32.62621 | 34164 ft | 471 kts | 212° |
| 2026-05-07 18:58 | 39.73718 | 32.58727 | 34148 ft | 471 kts | 212° |
| 2026-05-07 18:59 | 39.67907 | 32.54864 | 34161 ft | 472 kts | 212° |
| 2026-05-07 18:59 | 39.62060 | 32.50983 | 34161 ft | 472 kts | 212° |
| 2026-05-07 19:00 | 39.56194 | 32.47098 | 34168 ft | 472 kts | 213° |
| 2026-05-07 19:00 | 39.50366 | 32.43244 | 34173 ft | 472 kts | 213° |
| 2026-05-07 19:01 | 39.44536 | 32.39397 | 34177 ft | 472 kts | 212° |
| 2026-05-07 19:01 | 39.38667 | 32.35533 | 34172 ft | 472 kts | 213° |
| 2026-05-07 19:02 | 39.32794 | 32.31695 | 34168 ft | 472 kts | 213° |
| 2026-05-07 19:02 | 39.26968 | 32.27902 | 34164 ft | 472 kts | 213° |
| 2026-05-07 19:03 | 39.21077 | 32.24070 | 34167 ft | 473 kts | 213° |
| 2026-05-07 19:03 | 39.15190 | 32.20249 | 34171 ft | 473 kts | 213° |
| 2026-05-07 19:04 | 39.09318 | 32.16444 | 34162 ft | 473 kts | 213° |
| 2026-05-07 19:04 | 39.03470 | 32.12661 | 34178 ft | 473 kts | 213° |
| 2026-05-07 19:05 | 38.97565 | 32.08850 | 34185 ft | 474 kts | 213° |
| 2026-05-07 19:05 | 38.91688 | 32.05062 | 34200 ft | 472 kts | 212° |
| 2026-05-07 19:06 | 38.85839 | 32.01300 | 34202 ft | 472 kts | 212° |
| 2026-05-07 19:06 | 38.77019 | 31.95641 | 34189 ft | 471 kts | 212° |
| 2026-05-07 19:07 | 38.71187 | 31.91907 | 34195 ft | 469 kts | 212° |
| 2026-05-07 19:07 | 38.65360 | 31.88183 | 34188 ft | 469 kts | 212° |
| 2026-05-07 19:08 | 38.59526 | 31.84462 | 34181 ft | 468 kts | 212° |
| 2026-05-07 19:08 | 38.53704 | 31.80755 | 34190 ft | 467 kts | 212° |
| 2026-05-07 19:09 | 38.47892 | 31.77061 | 34198 ft | 466 kts | 212° |
| 2026-05-07 19:09 | 38.42081 | 31.73374 | 34192 ft | 465 kts | 212° |
| 2026-05-07 19:10 | 38.36307 | 31.69718 | 34198 ft | 465 kts | 212° |
| 2026-05-07 19:10 | 38.30500 | 31.66047 | 34195 ft | 465 kts | 212° |
| 2026-05-07 19:11 | 38.25686 | 31.63009 | 34193 ft | 465 kts | 212° |
| 2026-05-07 19:11 | 38.18931 | 31.58754 | 34198 ft | 465 kts | 212° |
| 2026-05-07 19:12 | 38.14102 | 31.55717 | 34196 ft | 465 kts | 212° |
| 2026-05-07 19:12 | 38.08284 | 31.52104 | 34190 ft | 464 kts | 211° |
| 2026-05-07 19:13 | 38.02465 | 31.48618 | 34208 ft | 464 kts | 211° |
| 2026-05-07 19:13 | 37.96611 | 31.45115 | 34211 ft | 464 kts | 211° |
| 2026-05-07 19:14 | 37.90794 | 31.41626 | 34204 ft | 464 kts | 211° |
| 2026-05-07 19:14 | 37.84948 | 31.38123 | 34202 ft | 463 kts | 211° |
| 2026-05-07 19:15 | 37.79110 | 31.34630 | 34196 ft | 463 kts | 211° |
| 2026-05-07 19:15 | 37.73321 | 31.31174 | 34196 ft | 462 kts | 211° |
| 2026-05-07 19:16 | 37.67488 | 31.27697 | 34192 ft | 462 kts | 211° |
| 2026-05-07 19:16 | 37.61695 | 31.24248 | 34176 ft | 462 kts | 210° |
| 2026-05-07 19:17 | 37.55878 | 31.20792 | 34198 ft | 461 kts | 210° |
| 2026-05-07 19:17 | 37.50092 | 31.17363 | 34184 ft | 460 kts | 210° |
| 2026-05-07 19:18 | 37.44279 | 31.13921 | 34176 ft | 461 kts | 210° |
| 2026-05-07 19:18 | 37.38470 | 31.10488 | 34157 ft | 461 kts | 210° |
| 2026-05-07 19:19 | 37.32742 | 31.06964 | 34160 ft | 459 kts | 213° |
| 2026-05-07 19:19 | 37.27142 | 31.03094 | 34158 ft | 459 kts | 214° |
| 2026-05-07 19:20 | 37.21533 | 30.99248 | 34139 ft | 458 kts | 213° |
| 2026-05-07 19:20 | 37.15992 | 30.95499 | 34139 ft | 457 kts | 212° |
| 2026-05-07 19:21 | 37.10374 | 30.91716 | 34141 ft | 457 kts | 212° |
| 2026-05-07 19:21 | 37.04809 | 30.87978 | 34137 ft | 457 kts | 212° |
| 2026-05-07 19:22 | 36.99192 | 30.84210 | 34147 ft | 456 kts | 212° |
| 2026-05-07 19:22 | 36.93536 | 30.80777 | 34147 ft | 462 kts | 202° |
| 2026-05-07 19:23 | 36.87130 | 30.79586 | 34134 ft | 471 kts | 181° |
| 2026-05-07 19:23 | 36.80613 | 30.79832 | 34149 ft | 471 kts | 181° |
| 2026-05-07 19:24 | 36.74042 | 30.80069 | 34140 ft | 472 kts | 181° |
| 2026-05-07 19:24 | 36.67516 | 30.80296 | 34131 ft | 472 kts | 181° |
| 2026-05-07 19:25 | 36.60941 | 30.80523 | 34122 ft | 472 kts | 181° |
| 2026-05-07 19:25 | 36.54361 | 30.80750 | 34113 ft | 472 kts | 181° |
| 2026-05-07 19:26 | 36.47808 | 30.80975 | 34111 ft | 473 kts | 181° |
| 2026-05-07 19:26 | 36.41233 | 30.81201 | 34113 ft | 473 kts | 181° |
| 2026-05-07 19:27 | 36.34637 | 30.81423 | 34117 ft | 473 kts | 181° |
| 2026-05-07 19:27 | 36.28072 | 30.81641 | 34120 ft | 473 kts | 181° |
| 2026-05-07 19:28 | 36.21476 | 30.81861 | 34111 ft | 473 kts | 181° |
| 2026-05-07 19:28 | 36.14920 | 30.82079 | 34118 ft | 473 kts | 181° |
| 2026-05-07 19:29 | 36.08333 | 30.82319 | 34113 ft | 474 kts | 178° |
| 2026-05-07 19:29 | 36.05073 | 30.83011 | 34116 ft | 478 kts | 166° |
| 2026-05-07 19:29 | 36.01966 | 30.84515 | 34114 ft | 481 kts | 153° |
| 2026-05-07 19:30 | 35.96556 | 30.89377 | 34115 ft | 482 kts | 140° |
| 2026-05-07 19:30 | 35.91474 | 30.94732 | 34122 ft | 483 kts | 140° |
| 2026-05-07 19:31 | 35.86256 | 30.99996 | 34117 ft | 484 kts | 142° |
| 2026-05-07 19:31 | 35.81020 | 31.05154 | 34125 ft | 484 kts | 142° |
| 2026-05-07 19:32 | 35.75758 | 31.10313 | 34132 ft | 485 kts | 142° |
| 2026-05-07 19:32 | 35.70473 | 31.15489 | 34131 ft | 485 kts | 142° |
| 2026-05-07 19:33 | 35.65211 | 31.20636 | 34137 ft | 485 kts | 142° |
| 2026-05-07 19:33 | 35.59916 | 31.25805 | 34126 ft | 486 kts | 142° |
| 2026-05-07 19:34 | 35.54628 | 31.30958 | 34133 ft | 486 kts | 142° |
| 2026-05-07 19:34 | 35.49313 | 31.36129 | 34136 ft | 487 kts | 142° |
| 2026-05-07 19:35 | 35.43997 | 31.41291 | 34139 ft | 487 kts | 142° |
| 2026-05-07 19:35 | 35.38696 | 31.46430 | 34137 ft | 487 kts | 142° |
| 2026-05-07 19:36 | 35.33379 | 31.51577 | 34139 ft | 487 kts | 142° |
| 2026-05-07 19:36 | 35.28043 | 31.56732 | 34133 ft | 488 kts | 142° |
| 2026-05-07 19:37 | 35.22733 | 31.61853 | 34139 ft | 488 kts | 142° |
| 2026-05-07 19:37 | 35.17381 | 31.67006 | 34141 ft | 489 kts | 142° |
| 2026-05-07 19:38 | 35.12066 | 31.72115 | 34142 ft | 489 kts | 142° |
| 2026-05-07 19:38 | 35.06693 | 31.77270 | 34138 ft | 489 kts | 142° |
| 2026-05-07 19:39 | 35.01334 | 31.82403 | 34132 ft | 489 kts | 142° |
| 2026-05-07 19:39 | 34.96004 | 31.87499 | 34134 ft | 489 kts | 142° |
| 2026-05-07 19:40 | 34.90634 | 31.92626 | 34138 ft | 489 kts | 142° |
| 2026-05-07 19:40 | 34.85288 | 31.97721 | 34139 ft | 490 kts | 142° |
| 2026-05-07 19:41 | 34.79917 | 32.02831 | 34126 ft | 489 kts | 142° |
| 2026-05-07 19:41 | 34.74544 | 32.07934 | 34132 ft | 489 kts | 142° |
| 2026-05-07 19:42 | 34.69189 | 32.13011 | 34124 ft | 490 kts | 142° |
| 2026-05-07 19:42 | 34.63800 | 32.18112 | 34127 ft | 490 kts | 142° |
| 2026-05-07 19:43 | 34.58405 | 32.23210 | 34124 ft | 490 kts | 142° |
| 2026-05-07 19:43 | 34.53038 | 32.28272 | 34125 ft | 491 kts | 142° |
| 2026-05-07 19:44 | 34.47640 | 32.33355 | 34117 ft | 491 kts | 142° |
| 2026-05-07 19:44 | 34.42261 | 32.38412 | 34107 ft | 491 kts | 142° |
| 2026-05-07 19:45 | 34.36854 | 32.43488 | 34110 ft | 492 kts | 142° |
| 2026-05-07 19:45 | 34.31433 | 32.48568 | 34113 ft | 492 kts | 142° |
| 2026-05-07 19:46 | 34.26007 | 32.53643 | 34114 ft | 492 kts | 142° |
| 2026-05-07 19:46 | 34.20617 | 32.58677 | 34115 ft | 492 kts | 142° |
| 2026-05-07 19:47 | 34.15185 | 32.63741 | 34112 ft | 493 kts | 141° |
| 2026-05-07 19:47 | 34.09806 | 32.68750 | 34115 ft | 493 kts | 142° |
| 2026-05-07 19:48 | 34.04028 | 32.73289 | 34115 ft | 493 kts | 148° |
| 2026-05-07 19:48 | 33.98188 | 32.77645 | 34118 ft | 493 kts | 148° |
| 2026-05-07 19:49 | 33.92378 | 32.81976 | 34115 ft | 493 kts | 148° |
| 2026-05-07 19:49 | 33.86536 | 32.86319 | 34112 ft | 493 kts | 148° |
| 2026-05-07 19:50 | 33.80689 | 32.90657 | 34116 ft | 493 kts | 148° |
| 2026-05-07 19:50 | 33.74884 | 32.94957 | 34114 ft | 492 kts | 148° |
| 2026-05-07 19:51 | 33.69040 | 32.99280 | 34115 ft | 492 kts | 148° |
| 2026-05-07 19:51 | 33.63224 | 33.03575 | 34114 ft | 492 kts | 148° |
| 2026-05-07 19:52 | 33.57375 | 33.07887 | 34113 ft | 492 kts | 148° |
| 2026-05-07 19:52 | 33.51537 | 33.12185 | 34113 ft | 492 kts | 148° |
| 2026-05-07 19:53 | 33.45692 | 33.16479 | 34121 ft | 492 kts | 148° |
| 2026-05-07 19:53 | 33.39889 | 33.20737 | 34116 ft | 492 kts | 148° |
| 2026-05-07 19:54 | 33.34028 | 33.25031 | 34116 ft | 492 kts | 148° |
| 2026-05-07 19:54 | 33.28173 | 33.29313 | 34112 ft | 492 kts | 148° |
| 2026-05-07 19:55 | 33.22368 | 33.33552 | 34116 ft | 492 kts | 148° |
| 2026-05-07 19:55 | 33.16508 | 33.37824 | 34114 ft | 492 kts | 148° |
| 2026-05-07 19:56 | 33.10660 | 33.42081 | 34113 ft | 492 kts | 148° |
| 2026-05-07 19:56 | 33.04823 | 33.46323 | 34108 ft | 492 kts | 148° |
| 2026-05-07 19:57 | 32.99004 | 33.50545 | 34092 ft | 490 kts | 148° |
| 2026-05-07 19:57 | 32.96095 | 33.52653 | 33736 ft | 486 kts | 148° |
| 2026-05-07 19:57 | 32.93212 | 33.54741 | 33074 ft | 482 kts | 148° |
| 2026-05-07 19:58 | 32.90352 | 33.56811 | 32410 ft | 479 kts | 148° |
| 2026-05-07 19:58 | 32.87545 | 33.58841 | 31884 ft | 475 kts | 148° |
| 2026-05-07 19:58 | 32.84731 | 33.60884 | 31336 ft | 470 kts | 146° |
| 2026-05-07 19:58 | 32.82114 | 33.63171 | 30784 ft | 465 kts | 138° |
| 2026-05-07 19:59 | 32.80535 | 33.64895 | 30417 ft | 462 kts | 133° |
| 2026-05-07 19:59 | 32.78317 | 33.67641 | 29826 ft | 457 kts | 131° |
| 2026-05-07 19:59 | 32.75418 | 33.71235 | 29111 ft | 449 kts | 132° |
| 2026-05-07 19:59 | 32.73963 | 33.73033 | 28667 ft | 447 kts | 132° |
| 2026-05-07 20:00 | 32.71831 | 33.75664 | 28049 ft | 444 kts | 133° |
| 2026-05-07 20:00 | 32.69692 | 33.78299 | 27447 ft | 439 kts | 133° |
| 2026-05-07 20:00 | 32.67584 | 33.80893 | 26844 ft | 435 kts | 133° |
| 2026-05-07 20:00 | 32.65478 | 33.83482 | 26250 ft | 431 kts | 133° |
| 2026-05-07 20:01 | 32.63405 | 33.86030 | 25564 ft | 426 kts | 133° |
| 2026-05-07 20:01 | 32.61376 | 33.88522 | 24870 ft | 422 kts | 133° |
| 2026-05-07 20:01 | 32.59346 | 33.91014 | 24181 ft | 417 kts | 134° |
| 2026-05-07 20:01 | 32.57337 | 33.93478 | 23482 ft | 413 kts | 134° |
| 2026-05-07 20:02 | 32.55352 | 33.95915 | 22718 ft | 408 kts | 134° |
| 2026-05-07 20:02 | 32.53409 | 33.98333 | 22006 ft | 402 kts | 133° |
| 2026-05-07 20:02 | 32.51490 | 34.00738 | 21274 ft | 398 kts | 133° |
| 2026-05-07 20:02 | 32.49599 | 34.03109 | 20558 ft | 393 kts | 133° |
| 2026-05-07 20:03 | 32.47725 | 34.05453 | 19866 ft | 389 kts | 133° |
| 2026-05-07 20:03 | 32.45870 | 34.07770 | 19183 ft | 385 kts | 134° |
| 2026-05-07 20:03 | 32.44032 | 34.10060 | 18527 ft | 381 kts | 134° |
| 2026-05-07 20:03 | 32.42343 | 34.12407 | 17814 ft | 377 kts | 126° |
| 2026-05-07 20:04 | 32.40877 | 34.14964 | 17123 ft | 372 kts | 123° |
| 2026-05-07 20:04 | 32.39443 | 34.17486 | 16439 ft | 368 kts | 124° |
| 2026-05-07 20:04 | 32.38016 | 34.19987 | 15773 ft | 364 kts | 124° |
| 2026-05-07 20:04 | 32.36606 | 34.22452 | 15120 ft | 359 kts | 124° |
| 2026-05-07 20:05 | 32.35205 | 34.24900 | 14477 ft | 356 kts | 124° |
| 2026-05-07 20:05 | 32.33836 | 34.27289 | 13872 ft | 352 kts | 125° |
| 2026-05-07 20:05 | 32.32460 | 34.29688 | 13178 ft | 349 kts | 125° |
| 2026-05-07 20:05 | 32.31111 | 34.32035 | 12576 ft | 342 kts | 125° |
| 2026-05-07 20:06 | 32.29765 | 34.34372 | 11873 ft | 341 kts | 125° |
| 2026-05-07 20:06 | 32.28458 | 34.36640 | 11236 ft | 339 kts | 125° |
| 2026-05-07 20:06 | 32.27128 | 34.38944 | 10662 ft | 335 kts | 126° |
| 2026-05-07 20:06 | 32.25830 | 34.41194 | 10078 ft | 331 kts | 125° |
| 2026-05-07 20:07 | 32.24539 | 34.43428 | 9534 ft | 324 kts | 125° |
| 2026-05-07 20:07 | 32.23275 | 34.45616 | 8900 ft | 322 kts | 125° |
| 2026-05-07 20:07 | 32.22021 | 34.47779 | 8314 ft | 317 kts | 125° |
| 2026-05-07 20:07 | 32.20788 | 34.49905 | 7777 ft | 316 kts | 124° |
| 2026-05-07 20:08 | 32.19560 | 34.52019 | 7370 ft | 310 kts | 125° |
| 2026-05-07 20:08 | 32.18340 | 34.54117 | 6935 ft | 306 kts | 124° |
| 2026-05-07 20:08 | 32.17134 | 34.56190 | 6449 ft | 305 kts | 124° |
| 2026-05-07 20:08 | 32.16003 | 34.58270 | 5960 ft | 302 kts | 120° |
| 2026-05-07 20:09 | 32.14937 | 34.60422 | 5430 ft | 301 kts | 119° |
| 2026-05-07 20:09 | 32.13877 | 34.62551 | 4984 ft | 297 kts | 119° |
| 2026-05-07 20:09 | 32.12853 | 34.64599 | 4809 ft | 281 kts | 119° |
| 2026-05-07 20:10 | 32.10987 | 34.68235 | 4484 ft | 241 kts | 120° |
| 2026-05-07 20:10 | 32.10141 | 34.69845 | 4381 ft | 220 kts | 118° |
| 2026-05-07 20:10 | 32.09391 | 34.71285 | 4097 ft | 196 kts | 118° |
| 2026-05-07 20:10 | 32.08693 | 34.72638 | 3510 ft | 192 kts | 117° |
| 2026-05-07 20:11 | 32.08002 | 34.73977 | 3085 ft | 196 kts | 117° |
| 2026-05-07 20:11 | 32.07307 | 34.75315 | 2664 ft | 182 kts | 117° |
| 2026-05-07 20:11 | 32.06685 | 34.76516 | 2275 ft | 171 kts | 116° |
| 2026-05-07 20:11 | 32.06069 | 34.77710 | 1898 ft | 171 kts | 117° |
| 2026-05-07 20:12 | 32.05449 | 34.78908 | 1645 ft | 172 kts | 116° |
| 2026-05-07 20:12 | 32.04835 | 34.80093 | 1410 ft | 169 kts | 117° |
| 2026-05-07 20:12 | 32.04225 | 34.81274 | 1184 ft | 171 kts | 117° |
| 2026-05-07 20:12 | 32.03614 | 34.82453 | 958 ft | 169 kts | 119° |
| 2026-05-07 20:13 | 32.03006 | 34.83627 | 741 ft | 167 kts | 119° |
| 2026-05-07 20:13 | 32.02410 | 34.84767 | 543 ft | 163 kts | 120° |
| 2026-05-07 20:13 | 32.01823 | 34.85898 | 359 ft | 164 kts | 119° |
| 2026-05-07 20:13 | 32.01239 | 34.87036 | 135 ft | 162 kts | 119° |
| 2026-05-07 20:14 | 32.00715 | 34.88063 | 116 ft | 124 kts | 122° |
| 2026-05-07 20:14 | 32.00368 | 34.88715 | 119 ft | 66 kts | 121° |
| 2026-05-07 20:14 | 32.00224 | 34.88991 | 117 ft | 24 kts | 122° |
| 2026-05-07 20:14 | 32.00147 | 34.89115 | 116 ft | 20 kts | 138° |
| 2026-05-07 20:15 | 32.00081 | 34.89142 | 116 ft | 14 kts | 184° |
| 2026-05-07 20:15 | 32.00005 | 34.89104 | 115 ft | 6 kts | 206° |
| 2026-05-07 20:15 | 31.99977 | 34.89056 | 117 ft | 0 kts | 264° |
| 2026-05-07 20:16 | 31.99998 | 34.88991 | 117 ft | 18 kts | 301° |
| 2026-05-07 20:17 | 32.00070 | 34.88856 | 117 ft | 21 kts | 303° |
| 2026-05-07 20:17 | 32.00151 | 34.88698 | 118 ft | 24 kts | 302° |
| 2026-05-07 20:17 | 32.00240 | 34.88530 | 116 ft | 25 kts | 301° |
| 2026-05-07 20:17 | 32.00333 | 34.88346 | 116 ft | 27 kts | 302° |
| 2026-05-07 20:18 | 32.00437 | 34.88157 | 117 ft | 28 kts | 301° |
| 2026-05-07 20:18 | 32.00495 | 34.88037 | 117 ft | 12 kts | 300° |
| 2026-05-07 20:18 | 32.00490 | 34.87947 | 117 ft | 13 kts | 212° |
| 2026-05-07 20:18 | 32.00401 | 34.87884 | 116 ft | 17 kts | 212° |
| 2026-05-07 20:19 | 32.00332 | 34.87837 | 116 ft | 0 kts | 175° |
| 2026-05-07 20:19 | 32.00330 | 34.87839 | 116 ft | 1 kts | 146° |
| 2026-05-07 20:19 | 32.00320 | 34.87862 | 117 ft | 5 kts | 119° |
| 2026-05-07 20:19 | 32.00297 | 34.87902 | 117 ft | 4 kts | 122° |
| 2026-05-07 20:20 | 32.00290 | 34.87915 | 115 ft | 0 kts | 122° |